createdAt,value
2017-05-10T00:00:31.962Z,0
2017-05-10T00:01:31.673Z,0
2017-05-10T00:02:31.929Z,0
2017-05-10T00:03:31.907Z,0
2017-05-10T00:04:31.880Z,0
2017-05-10T00:05:31.564Z,0
2017-05-10T00:06:31.813Z,0
2017-05-10T00:07:31.793Z,0
2017-05-10T00:08:31.768Z,0
2017-05-10T00:09:31.803Z,0
2017-05-10T00:10:31.724Z,0
2017-05-10T00:11:31.116Z,0
2017-05-10T00:12:31.677Z,0
2017-05-10T00:13:31.664Z,0
2017-05-10T00:14:31.625Z,0
2017-05-10T00:15:31.668Z,0
2017-05-10T00:16:31.606Z,0
2017-05-10T00:17:31.554Z,0
2017-05-10T00:18:31.268Z,0
2017-05-10T00:19:31.506Z,0
2017-05-10T00:20:31.473Z,0
2017-05-10T00:21:31.506Z,0
2017-05-10T00:22:31.135Z,0
2017-05-10T00:23:31.416Z,0
2017-05-10T00:24:31.380Z,0
2017-05-10T00:25:31.365Z,0
2017-05-10T00:26:31.388Z,0
2017-05-10T00:27:31.315Z,0
2017-05-10T00:28:31.320Z,0
2017-05-10T00:29:30.968Z,0
2017-05-10T00:30:31.257Z,0
2017-05-10T00:31:31.212Z,0
2017-05-10T00:32:31.192Z,0
2017-05-10T00:33:30.925Z,0
2017-05-10T00:34:31.142Z,0
2017-05-10T00:35:31.172Z,0
2017-05-10T00:36:30.792Z,0
2017-05-10T00:37:31.097Z,0
2017-05-10T00:38:31.093Z,0
2017-05-10T00:39:30.162Z,0
2017-05-10T00:40:31.010Z,0
2017-05-10T00:41:30.685Z,0
2017-05-10T00:42:30.949Z,0
2017-05-10T00:43:30.924Z,0
2017-05-10T00:44:30.594Z,0
2017-05-10T00:45:30.873Z,0
2017-05-10T00:46:30.567Z,0
2017-05-10T00:47:30.829Z,0
2017-05-10T00:48:30.899Z,0
2017-05-10T00:49:30.789Z,0
2017-05-10T00:50:30.763Z,0
2017-05-10T00:51:30.728Z,0
2017-05-10T00:52:30.963Z,0
2017-05-10T00:53:30.682Z,0
2017-05-10T00:54:30.655Z,0
2017-05-10T00:55:30.339Z,0
2017-05-10T00:56:30.600Z,0
2017-05-10T00:57:30.287Z,0
2017-05-10T00:58:30.584Z,0
2017-05-10T00:59:30.536Z,0
2017-05-10T01:00:30.507Z,0
2017-05-10T01:01:30.490Z,0
2017-05-10T01:02:30.511Z,0
2017-05-10T01:03:30.490Z,0
2017-05-10T01:04:30.123Z,0
2017-05-10T01:05:30.694Z,0
2017-05-10T01:06:30.416Z,0
2017-05-10T01:07:30.324Z,0
2017-05-10T01:08:30.315Z,0
2017-05-10T01:09:30.298Z,0
2017-05-10T01:10:30.290Z,0
2017-05-10T01:11:30.236Z,0
2017-05-10T01:12:30.226Z,0
2017-05-10T01:13:30.445Z,0
2017-05-10T01:14:30.176Z,0
2017-05-10T01:15:30.146Z,0
2017-05-10T01:16:29.824Z,0
2017-05-10T01:17:29.802Z,0
2017-05-10T01:18:30.079Z,0
2017-05-10T01:19:30.050Z,0
2017-05-10T01:20:29.729Z,0
2017-05-10T01:21:30.005Z,0
2017-05-10T01:22:29.976Z,0
2017-05-10T01:23:29.949Z,0
2017-05-10T01:24:29.936Z,0
2017-05-10T01:25:29.641Z,0
2017-05-10T01:26:29.925Z,0
2017-05-10T01:27:29.860Z,0
2017-05-10T01:28:29.835Z,0
2017-05-10T01:29:29.499Z,0
2017-05-10T01:30:29.797Z,0
2017-05-10T01:31:29.754Z,0
2017-05-10T01:32:29.730Z,0
2017-05-10T01:33:29.712Z,0
2017-05-10T01:34:29.726Z,0
2017-05-10T01:35:29.649Z,0
2017-05-10T01:36:29.644Z,0
2017-05-10T01:37:29.616Z,0
2017-05-10T01:38:29.584Z,0
2017-05-10T01:39:29.320Z,0
2017-05-10T01:40:29.239Z,0
2017-05-10T01:41:29.548Z,0
2017-05-10T01:42:29.482Z,0
2017-05-10T01:43:29.454Z,0
2017-05-10T01:44:29.171Z,0
2017-05-10T01:45:29.106Z,0
2017-05-10T01:46:29.097Z,0
2017-05-10T01:47:29.358Z,0
2017-05-10T01:48:29.046Z,0
2017-05-10T01:49:29.021Z,0
2017-05-10T01:50:28.979Z,0
2017-05-10T01:51:29.259Z,0
2017-05-10T01:52:29.262Z,0
2017-05-10T01:53:28.914Z,0
2017-05-10T01:54:28.886Z,0
2017-05-10T01:55:28.863Z,0
2017-05-10T01:56:28.541Z,0
2017-05-10T01:57:28.815Z,0
2017-05-10T01:58:28.494Z,0
2017-05-10T01:59:28.811Z,0
2017-05-10T02:00:29.032Z,0
2017-05-10T02:01:29.027Z,0
2017-05-10T02:02:28.691Z,0
2017-05-10T02:03:28.686Z,0
2017-05-10T02:04:28.841Z,0
2017-05-10T02:05:28.661Z,0
2017-05-10T02:06:28.603Z,0
2017-05-10T02:07:28.561Z,0
2017-05-10T02:08:28.246Z,0
2017-05-10T02:09:28.529Z,0
2017-05-10T02:10:28.793Z,0
2017-05-10T02:11:28.778Z,0
2017-05-10T02:12:28.742Z,0
2017-05-10T02:13:28.423Z,0
2017-05-10T02:14:28.409Z,0
2017-05-10T02:15:28.369Z,0
2017-05-10T02:16:28.352Z,0
2017-05-10T02:17:28.322Z,0
2017-05-10T02:18:28.605Z,0
2017-05-10T02:19:28.572Z,0
2017-05-10T02:20:28.547Z,0
2017-05-10T02:21:27.975Z,0
2017-05-10T02:22:28.201Z,0
2017-05-10T02:23:28.483Z,0
2017-05-10T02:24:28.470Z,0
2017-05-10T02:25:28.429Z,0
2017-05-10T02:26:28.404Z,0
2017-05-10T02:27:28.382Z,0
2017-05-10T02:28:28.400Z,0
2017-05-10T02:29:28.323Z,0
2017-05-10T02:30:28.001Z,0
2017-05-10T02:31:27.966Z,0
2017-05-10T02:32:28.255Z,0
2017-05-10T02:33:27.918Z,0
2017-05-10T02:34:28.208Z,0
2017-05-10T02:35:28.213Z,0
2017-05-10T02:36:28.156Z,0
2017-05-10T02:37:27.541Z,0
2017-05-10T02:38:28.102Z,0
2017-05-10T02:39:27.824Z,0
2017-05-10T02:40:28.052Z,0
2017-05-10T02:41:28.080Z,0
2017-05-10T02:42:28.072Z,0
2017-05-10T02:43:27.992Z,0
2017-05-10T02:44:27.950Z,0
2017-05-10T02:45:27.940Z,0
2017-05-10T02:46:27.916Z,0
2017-05-10T02:47:27.885Z,0
2017-05-10T02:48:27.866Z,0
2017-05-10T02:49:27.830Z,0
2017-05-10T02:50:27.820Z,0
2017-05-10T02:51:27.782Z,0
2017-05-10T02:52:27.769Z,0
2017-05-10T02:53:27.736Z,0
2017-05-10T02:54:27.724Z,0
2017-05-10T02:55:27.697Z,0
2017-05-10T02:56:27.362Z,0
2017-05-10T02:57:27.338Z,0
2017-05-10T02:58:27.615Z,0
2017-05-10T02:59:27.298Z,0
2017-05-10T03:00:27.255Z,0
2017-05-10T03:01:27.528Z,0
2017-05-10T03:02:27.507Z,0
2017-05-10T03:03:27.494Z,0
2017-05-10T03:04:27.175Z,0
2017-05-10T03:05:27.157Z,0
2017-05-10T03:06:27.421Z,0
2017-05-10T03:07:27.087Z,0
2017-05-10T03:08:27.357Z,0
2017-05-10T03:09:27.352Z,0
2017-05-10T03:10:27.315Z,0
2017-05-10T03:11:27.276Z,0
2017-05-10T03:12:26.956Z,0
2017-05-10T03:13:27.231Z,0
2017-05-10T03:14:27.206Z,0
2017-05-10T03:15:26.926Z,0
2017-05-10T03:16:27.164Z,0
2017-05-10T03:17:26.824Z,0
2017-05-10T03:18:26.812Z,0
2017-05-10T03:19:27.094Z,0
2017-05-10T03:20:27.123Z,0
2017-05-10T03:21:26.725Z,0
2017-05-10T03:22:27.006Z,0
2017-05-10T03:23:26.687Z,0
2017-05-10T03:24:27.006Z,0
2017-05-10T03:25:26.930Z,0
2017-05-10T03:26:26.961Z,0
2017-05-10T03:27:26.884Z,0
2017-05-10T03:28:26.867Z,0
2017-05-10T03:29:26.834Z,0
2017-05-10T03:30:26.829Z,0
2017-05-10T03:31:26.787Z,0
2017-05-10T03:32:26.761Z,0
2017-05-10T03:33:26.789Z,0
2017-05-10T03:34:26.708Z,0
2017-05-10T03:35:26.680Z,0
2017-05-10T03:36:26.662Z,0
2017-05-10T03:37:26.632Z,5
2017-05-10T03:38:26.630Z,5
2017-05-10T03:39:26.581Z,5
2017-05-10T03:40:26.568Z,5
2017-05-10T03:41:26.533Z,5
2017-05-10T03:42:26.515Z,5
2017-05-10T03:43:26.185Z,5
2017-05-10T03:44:26.158Z,5
2017-05-10T03:45:26.426Z,5
2017-05-10T03:46:26.407Z,10
2017-05-10T03:47:26.387Z,10
2017-05-10T03:48:26.363Z,10
2017-05-10T03:49:26.328Z,10
2017-05-10T03:50:26.308Z,10
2017-05-10T03:51:26.283Z,10
2017-05-10T03:52:26.258Z,15
2017-05-10T03:53:26.239Z,15
2017-05-10T03:54:26.259Z,15
2017-05-10T03:55:26.182Z,15
2017-05-10T03:56:26.197Z,15
2017-05-10T03:57:26.166Z,20
2017-05-10T03:58:26.113Z,20
2017-05-10T03:59:26.084Z,20
2017-05-10T04:00:26.053Z,20
2017-05-10T04:01:26.033Z,25
2017-05-10T04:02:26.311Z,25
2017-05-10T04:03:26.032Z,25
2017-05-10T04:04:25.961Z,25
2017-05-10T04:05:25.938Z,30
2017-05-10T04:06:25.896Z,30
2017-05-10T04:07:25.579Z,30
2017-05-10T04:08:25.949Z,35
2017-05-10T04:09:25.830Z,35
2017-05-10T04:10:25.798Z,40
2017-05-10T04:11:25.788Z,40
2017-05-10T04:12:25.757Z,45
2017-05-10T04:13:25.734Z,45
2017-05-10T04:14:25.712Z,45
2017-05-10T04:15:25.673Z,50
2017-05-10T04:16:25.653Z,50
2017-05-10T04:17:25.639Z,50
2017-05-10T04:18:25.609Z,50
2017-05-10T04:19:25.571Z,55
2017-05-10T04:20:25.554Z,55
2017-05-10T04:21:25.525Z,55
2017-05-10T04:22:25.507Z,55
2017-05-10T04:23:25.190Z,60
2017-05-10T04:24:25.467Z,65
2017-05-10T04:25:25.435Z,65
2017-05-10T04:26:25.107Z,65
2017-05-10T04:27:25.387Z,70
2017-05-10T04:28:25.369Z,70
2017-05-10T04:29:25.339Z,75
2017-05-10T04:30:25.315Z,75
2017-05-10T04:31:25.288Z,85
2017-05-10T04:32:25.265Z,90
2017-05-10T04:33:25.237Z,90
2017-05-10T04:34:25.203Z,95
2017-05-10T04:35:25.191Z,100
2017-05-10T04:36:24.856Z,105
2017-05-10T04:37:25.130Z,110
2017-05-10T04:38:25.100Z,110
2017-05-10T04:39:25.087Z,115
2017-05-10T04:40:25.103Z,115
2017-05-10T04:41:25.082Z,120
2017-05-10T04:42:25.018Z,120
2017-05-10T04:43:24.710Z,120
2017-05-10T04:44:24.965Z,120
2017-05-10T04:45:24.939Z,140
2017-05-10T04:46:25.000Z,135
2017-05-10T04:47:24.895Z,145
2017-05-10T04:48:24.861Z,150
2017-05-10T04:49:24.840Z,150
2017-05-10T04:50:24.813Z,155
2017-05-10T04:51:24.481Z,160
2017-05-10T04:52:24.776Z,165
2017-05-10T04:53:24.741Z,165
2017-05-10T04:54:24.421Z,175
2017-05-10T04:55:24.739Z,195
2017-05-10T04:56:24.359Z,210
2017-05-10T04:57:24.643Z,220
2017-05-10T04:58:24.319Z,220
2017-05-10T04:59:24.590Z,220
2017-05-10T05:00:24.567Z,200
2017-05-10T05:01:24.548Z,235
2017-05-10T05:02:24.520Z,240
2017-05-10T05:03:24.498Z,250
2017-05-10T05:04:24.486Z,260
2017-05-10T05:05:24.449Z,255
2017-05-10T05:06:24.443Z,280
2017-05-10T05:07:24.154Z,285
2017-05-10T05:08:24.090Z,295
2017-05-10T05:09:24.363Z,300
2017-05-10T05:10:24.348Z,300
2017-05-10T05:11:24.324Z,300
2017-05-10T05:12:24.292Z,310
2017-05-10T05:13:24.271Z,315
2017-05-10T05:14:23.990Z,325
2017-05-10T05:15:23.924Z,320
2017-05-10T05:16:24.207Z,320
2017-05-10T05:17:24.174Z,340
2017-05-10T05:18:24.212Z,350
2017-05-10T05:19:23.840Z,340
2017-05-10T05:20:24.113Z,365
2017-05-10T05:21:23.821Z,365
2017-05-10T05:22:24.070Z,375
2017-05-10T05:23:24.053Z,380
2017-05-10T05:24:24.016Z,355
2017-05-10T05:25:24.012Z,340
2017-05-10T05:26:23.975Z,320
2017-05-10T05:27:23.948Z,395
2017-05-10T05:28:23.936Z,410
2017-05-10T05:29:23.968Z,405
2017-05-10T05:30:23.882Z,395
2017-05-10T05:31:23.571Z,395
2017-05-10T05:32:23.602Z,415
2017-05-10T05:33:23.890Z,425
2017-05-10T05:34:23.815Z,395
2017-05-10T05:35:23.786Z,400
2017-05-10T05:36:23.454Z,430
2017-05-10T05:37:23.751Z,435
2017-05-10T05:38:23.464Z,385
2017-05-10T05:39:23.703Z,385
2017-05-10T05:40:23.672Z,490
2017-05-10T05:41:23.665Z,510
2017-05-10T05:42:23.633Z,520
2017-05-10T05:43:23.609Z,520
2017-05-10T05:44:23.584Z,505
2017-05-10T05:45:23.562Z,500
2017-05-10T05:46:23.239Z,510
2017-05-10T05:47:23.527Z,475
2017-05-10T05:48:23.504Z,460
2017-05-10T05:49:23.495Z,500
2017-05-10T05:50:23.458Z,525
2017-05-10T05:51:23.475Z,510
2017-05-10T05:52:23.418Z,495
2017-05-10T05:53:23.405Z,375
2017-05-10T05:54:23.374Z,540
2017-05-10T05:55:23.408Z,605
2017-05-10T05:56:23.328Z,610
2017-05-10T05:57:23.315Z,620
2017-05-10T05:58:23.304Z,590
2017-05-10T05:59:23.333Z,550
2017-05-10T06:00:23.252Z,575
2017-05-10T06:01:23.233Z,585
2017-05-10T06:02:22.914Z,660
2017-05-10T06:03:23.240Z,660
2017-05-10T06:04:23.177Z,665
2017-05-10T06:05:23.148Z,660
2017-05-10T06:06:23.145Z,625
2017-05-10T06:07:23.126Z,625
2017-05-10T06:08:23.092Z,605
2017-05-10T06:09:23.074Z,645
2017-05-10T06:10:23.095Z,695
2017-05-10T06:11:23.039Z,705
2017-05-10T06:12:23.014Z,725
2017-05-10T06:13:23.003Z,745
2017-05-10T06:14:22.977Z,770
2017-05-10T06:15:22.955Z,800
2017-05-10T06:16:22.944Z,775
2017-05-10T06:17:22.965Z,785
2017-05-10T06:18:22.904Z,770
2017-05-10T06:19:22.945Z,755
2017-05-10T06:20:22.867Z,745
2017-05-10T06:21:22.844Z,805
2017-05-10T06:22:22.522Z,780
2017-05-10T06:23:22.798Z,750
2017-05-10T06:24:23.003Z,745
2017-05-10T06:25:22.765Z,790
2017-05-10T06:26:22.740Z,830
2017-05-10T06:27:22.719Z,845
2017-05-10T06:28:22.716Z,820
2017-05-10T06:29:22.746Z,850
2017-05-10T06:30:22.668Z,780
2017-05-10T06:31:22.704Z,770
2017-05-10T06:32:22.633Z,770
2017-05-10T06:33:22.616Z,820
2017-05-10T06:34:22.602Z,875
2017-05-10T06:35:22.286Z,890
2017-05-10T06:36:22.558Z,810
2017-05-10T06:37:22.604Z,855
2017-05-10T06:38:22.520Z,915
2017-05-10T06:39:22.541Z,935
2017-05-10T06:40:22.243Z,905
2017-05-10T06:41:22.470Z,1015
2017-05-10T06:42:22.464Z,1005
2017-05-10T06:43:22.472Z,1035
2017-05-10T06:44:22.441Z,1020
2017-05-10T06:45:22.351Z,1000
2017-05-10T06:46:22.118Z,1005
2017-05-10T06:47:22.368Z,1005
2017-05-10T06:48:22.357Z,955
2017-05-10T06:49:22.328Z,960
2017-05-10T06:50:22.010Z,970
2017-05-10T06:51:22.302Z,960
2017-05-10T06:52:22.010Z,1025
2017-05-10T06:53:22.263Z,1015
2017-05-10T06:54:22.261Z,1005
2017-05-10T06:55:22.227Z,990
2017-05-10T06:56:21.906Z,1035
2017-05-10T06:57:22.198Z,1065
2017-05-10T06:58:22.179Z,1080
2017-05-10T06:59:22.218Z,1090
2017-05-10T07:00:22.140Z,1085
2017-05-10T07:01:22.122Z,1090
2017-05-10T07:02:22.157Z,1120
2017-05-10T07:03:22.093Z,1140
2017-05-10T07:04:21.832Z,1165
2017-05-10T07:05:22.057Z,1170
2017-05-10T07:06:22.074Z,1175
2017-05-10T07:07:22.024Z,1105
2017-05-10T07:08:22.002Z,1135
2017-05-10T07:09:21.989Z,1205
2017-05-10T07:10:21.973Z,1160
2017-05-10T07:11:21.970Z,1095
2017-05-10T07:12:21.949Z,1140
2017-05-10T07:13:21.996Z,1225
2017-05-10T07:14:21.925Z,1240
2017-05-10T07:15:21.598Z,1255
2017-05-10T07:16:21.878Z,1260
2017-05-10T07:17:21.865Z,1280
2017-05-10T07:18:21.845Z,1125
2017-05-10T07:19:21.835Z,1305
2017-05-10T07:20:21.865Z,1320
2017-05-10T07:21:21.808Z,1325
2017-05-10T07:22:21.837Z,1315
2017-05-10T07:23:21.768Z,1325
2017-05-10T07:24:21.757Z,1340
2017-05-10T07:25:21.738Z,1195
2017-05-10T07:26:21.719Z,1310
2017-05-10T07:27:21.748Z,1295
2017-05-10T07:28:21.690Z,1295
2017-05-10T07:29:21.687Z,1300
2017-05-10T07:30:21.050Z,1320
2017-05-10T07:31:21.654Z,1340
2017-05-10T07:32:21.630Z,1365
2017-05-10T07:33:21.625Z,1410
2017-05-10T07:34:21.652Z,1375
2017-05-10T07:35:21.588Z,1405
2017-05-10T07:36:21.583Z,1375
2017-05-10T07:37:21.617Z,1410
2017-05-10T07:38:21.540Z,1450
2017-05-10T07:39:21.530Z,1435
2017-05-10T07:40:21.562Z,1425
2017-05-10T07:41:21.494Z,1420
2017-05-10T07:42:21.482Z,1410
2017-05-10T07:43:21.526Z,1420
2017-05-10T07:44:21.515Z,1215
2017-05-10T07:45:21.447Z,1445
2017-05-10T07:46:21.425Z,1495
2017-05-10T07:47:21.408Z,1460
2017-05-10T07:48:21.397Z,1485
2017-05-10T07:49:21.377Z,1485
2017-05-10T07:50:21.380Z,1500
2017-05-10T07:51:21.051Z,1475
2017-05-10T07:52:21.338Z,1395
2017-05-10T07:53:21.330Z,1255
2017-05-10T07:54:21.321Z,1500
2017-05-10T07:55:21.357Z,1525
2017-05-10T07:56:20.983Z,1550
2017-05-10T07:57:21.269Z,1565
2017-05-10T07:58:21.507Z,1550
2017-05-10T07:59:21.248Z,1605
2017-05-10T08:00:21.224Z,1660
2017-05-10T08:01:21.213Z,1785
2017-05-10T08:02:21.351Z,1850
2017-05-10T08:03:21.184Z,1840
2017-05-10T08:04:21.179Z,1850
2017-05-10T08:05:21.214Z,1865
2017-05-10T08:06:21.167Z,1895
2017-05-10T08:07:21.122Z,1905
2017-05-10T08:08:21.122Z,1935
2017-05-10T08:09:21.105Z,1925
2017-05-10T08:10:21.091Z,1935
2017-05-10T08:11:21.085Z,1920
2017-05-10T08:12:21.118Z,1920
2017-05-10T08:13:21.064Z,1965
2017-05-10T08:14:21.055Z,1985
2017-05-10T08:15:21.031Z,2025
2017-05-10T08:16:21.024Z,2060
2017-05-10T08:17:21.053Z,2090
2017-05-10T08:18:20.694Z,2025
2017-05-10T08:19:21.025Z,1890
2017-05-10T08:20:21.001Z,1875
2017-05-10T08:21:20.954Z,1835
2017-05-10T08:22:21.202Z,1775
2017-05-10T08:23:20.991Z,1830
2017-05-10T08:24:20.621Z,1605
2017-05-10T08:25:20.916Z,1815
2017-05-10T08:26:20.900Z,1110
2017-05-10T08:27:20.890Z,1045
2017-05-10T08:28:20.933Z,1580
2017-05-10T08:29:20.858Z,1465
2017-05-10T08:30:20.549Z,925
2017-05-10T08:31:20.531Z,1930
2017-05-10T08:32:20.830Z,1845
2017-05-10T08:33:20.828Z,1570
2017-05-10T08:34:20.803Z,1410
2017-05-10T08:35:20.533Z,1495
2017-05-10T08:36:20.780Z,930
2017-05-10T08:37:20.759Z,1445
2017-05-10T08:38:20.756Z,830
2017-05-10T08:39:20.748Z,1835
2017-05-10T08:40:20.777Z,1985
2017-05-10T08:41:20.720Z,2230
2017-05-10T08:42:20.696Z,2230
2017-05-10T08:43:20.786Z,2295
2017-05-10T08:44:20.419Z,2245
2017-05-10T08:45:20.616Z,2065
2017-05-10T08:46:20.342Z,2260
2017-05-10T08:47:20.324Z,1920
2017-05-10T08:48:20.674Z,1870
2017-05-10T08:49:20.627Z,1390
2017-05-10T08:50:20.604Z,905
2017-05-10T08:51:20.642Z,825
2017-05-10T08:52:20.273Z,725
2017-05-10T08:53:20.614Z,1615
2017-05-10T08:54:20.552Z,1380
2017-05-10T08:55:20.525Z,1070
2017-05-10T08:56:20.516Z,1145
2017-05-10T08:57:20.501Z,530
2017-05-10T08:58:20.795Z,480
2017-05-10T08:59:20.471Z,570
2017-05-10T09:00:20.456Z,760
2017-05-10T09:01:20.448Z,1950
2017-05-10T09:02:20.435Z,1930
2017-05-10T09:03:20.422Z,875
2017-05-10T09:04:20.388Z,1845
2017-05-10T09:05:20.387Z,1060
2017-05-10T09:06:20.414Z,1495
2017-05-10T09:07:20.353Z,730
2017-05-10T09:08:20.029Z,670
2017-05-10T09:09:20.328Z,645
2017-05-10T09:10:20.309Z,740
2017-05-10T09:11:20.286Z,810
2017-05-10T09:12:20.274Z,2120
2017-05-10T09:13:19.956Z,2110
2017-05-10T09:14:20.298Z,2175
2017-05-10T09:15:20.225Z,2080
2017-05-10T09:16:20.245Z,830
2017-05-10T09:17:20.211Z,2005
2017-05-10T09:18:20.192Z,2105
2017-05-10T09:19:19.864Z,850
2017-05-10T09:20:20.147Z,2080
2017-05-10T09:21:20.146Z,2225
2017-05-10T09:22:20.119Z,2190
2017-05-10T09:23:20.109Z,2270
2017-05-10T09:24:20.386Z,2300
2017-05-10T09:25:19.808Z,2020
2017-05-10T09:26:19.765Z,875
2017-05-10T09:27:19.748Z,695
2017-05-10T09:28:20.095Z,630
2017-05-10T09:29:20.022Z,580
2017-05-10T09:30:20.008Z,590
2017-05-10T09:31:19.994Z,720
2017-05-10T09:32:20.036Z,1090
2017-05-10T09:33:19.965Z,870
2017-05-10T09:34:19.952Z,1345
2017-05-10T09:35:19.931Z,610
2017-05-10T09:36:19.914Z,750
2017-05-10T09:37:19.905Z,1400
2017-05-10T09:38:19.937Z,935
2017-05-10T09:39:19.868Z,1105
2017-05-10T09:40:19.862Z,1790
2017-05-10T09:41:19.830Z,1510
2017-05-10T09:42:19.824Z,2225
2017-05-10T09:43:19.802Z,685
2017-05-10T09:44:19.236Z,650
2017-05-10T09:45:19.165Z,630
2017-05-10T09:46:19.519Z,650
2017-05-10T09:47:19.430Z,1010
2017-05-10T09:48:19.749Z,2185
2017-05-10T09:49:19.108Z,2260
2017-05-10T09:50:19.389Z,2290
2017-05-10T09:51:19.381Z,2185
2017-05-10T09:52:19.658Z,1275
2017-05-10T09:53:19.639Z,2275
2017-05-10T09:54:19.621Z,2115
2017-05-10T09:55:19.314Z,1765
2017-05-10T09:56:19.598Z,775
2017-05-10T09:57:19.587Z,890
2017-05-10T09:58:19.569Z,670
2017-05-10T09:59:19.248Z,615
2017-05-10T10:00:19.230Z,550
2017-05-10T10:01:19.529Z,550
2017-05-10T10:02:19.504Z,580
2017-05-10T10:03:19.542Z,585
2017-05-10T10:04:18.871Z,575
2017-05-10T10:05:19.454Z,560
2017-05-10T10:06:19.444Z,570
2017-05-10T10:07:19.433Z,715
2017-05-10T10:08:19.171Z,1760
2017-05-10T10:09:19.453Z,2310
2017-05-10T10:10:19.432Z,2170
2017-05-10T10:11:19.356Z,1820
2017-05-10T10:12:19.354Z,885
2017-05-10T10:13:19.590Z,755
2017-05-10T10:14:19.314Z,690
2017-05-10T10:15:19.294Z,580
2017-05-10T10:16:18.969Z,570
2017-05-10T10:17:19.314Z,575
2017-05-10T10:25:46.434Z,730
2017-05-10T10:26:14.831Z,760
2017-05-10T10:27:14.933Z,875
2017-05-10T10:28:15.224Z,2405
2017-05-10T10:29:14.902Z,1575
2017-05-10T10:30:14.876Z,2450
2017-05-10T10:31:14.856Z,1160
2017-05-10T10:32:14.601Z,1260
2017-05-10T10:33:14.840Z,2290
2017-05-10T10:34:14.818Z,760
2017-05-10T10:35:14.797Z,1810
2017-05-10T10:36:14.487Z,2525
2017-05-10T10:37:14.827Z,2565
2017-05-10T10:38:29.359Z,2580
2017-05-10T10:39:14.440Z,2600
2017-05-10T10:40:14.423Z,2660
2017-05-10T10:41:14.749Z,2670
2017-05-10T10:42:14.687Z,2710
2017-05-10T10:43:14.679Z,2700
2017-05-10T10:44:14.425Z,2635
2017-05-10T10:45:14.671Z,2640
2017-05-10T10:46:14.347Z,2425
2017-05-10T10:47:14.334Z,1075
2017-05-10T10:48:14.622Z,1330
2017-05-10T10:49:14.596Z,995
2017-05-10T10:50:14.640Z,2470
2017-05-10T10:51:14.570Z,2485
2017-05-10T10:52:14.578Z,2535
2017-05-10T10:53:14.240Z,2490
2017-05-10T10:54:14.532Z,2205
2017-05-10T10:55:14.578Z,660
2017-05-10T10:56:14.526Z,550
2017-05-10T10:57:14.194Z,530
2017-05-10T10:58:14.483Z,515
2017-05-10T10:59:14.467Z,500
2017-05-10T11:00:14.510Z,500
2017-05-10T11:01:14.442Z,550
2017-05-10T11:02:14.430Z,570
2017-05-10T11:03:14.714Z,575
2017-05-10T11:04:14.391Z,565
2017-05-10T11:05:14.380Z,580
2017-05-10T11:06:14.368Z,585
2017-05-10T11:07:14.365Z,640
2017-05-10T11:08:14.331Z,545
2017-05-10T11:09:14.048Z,515
2017-05-10T11:10:13.999Z,465
2017-05-10T11:11:14.026Z,440
2017-05-10T11:12:14.266Z,440
2017-05-10T11:13:14.261Z,455
2017-05-10T11:14:13.962Z,460
2017-05-10T11:15:14.214Z,455
2017-05-10T11:16:14.203Z,470
2017-05-10T11:17:14.226Z,500
2017-05-10T11:18:14.160Z,535
2017-05-10T11:19:14.137Z,575
2017-05-10T11:20:13.867Z,595
2017-05-10T11:21:14.091Z,595
2017-05-10T11:22:13.816Z,570
2017-05-10T11:23:13.769Z,560
2017-05-10T11:24:13.735Z,520
2017-05-10T11:25:13.722Z,525
2017-05-10T11:26:13.399Z,490
2017-05-10T11:27:14.046Z,490
2017-05-10T11:28:14.017Z,520
2017-05-10T11:29:13.995Z,535
2017-05-10T11:30:13.980Z,520
2017-05-10T11:31:13.616Z,455
2017-05-10T11:32:13.903Z,385
2017-05-10T11:33:13.873Z,365
2017-05-10T11:34:13.865Z,365
2017-05-10T11:35:13.853Z,400
2017-05-10T11:36:13.819Z,455
2017-05-10T11:37:13.863Z,480
2017-05-10T11:38:13.784Z,480
2017-05-10T11:39:13.451Z,490
2017-05-10T11:40:13.485Z,505
2017-05-10T11:41:13.716Z,510
2017-05-10T11:42:13.702Z,510
2017-05-10T11:43:13.677Z,520
2017-05-10T11:44:13.660Z,495
2017-05-10T11:45:13.346Z,520
2017-05-10T11:46:13.697Z,505
2017-05-10T11:47:13.610Z,465
2017-05-10T11:48:13.632Z,435
2017-05-10T11:49:13.576Z,390
2017-05-10T11:50:13.548Z,360
2017-05-10T11:51:13.578Z,385
2017-05-10T11:52:13.503Z,370
2017-05-10T11:53:13.505Z,325
2017-05-10T11:54:13.477Z,295
2017-05-10T11:55:13.178Z,290
2017-05-10T11:56:13.437Z,300
2017-05-10T11:57:13.414Z,315
2017-05-10T11:58:13.459Z,315
2017-05-10T11:59:13.084Z,320
2017-05-10T12:00:13.606Z,305
2017-05-10T12:01:13.337Z,295
2017-05-10T12:02:13.314Z,290
2017-05-10T12:03:12.987Z,290
2017-05-10T12:04:13.289Z,300
2017-05-10T12:05:12.951Z,300
2017-05-10T12:06:13.237Z,325
2017-05-10T12:07:13.219Z,365
2017-05-10T12:08:13.231Z,365
2017-05-10T12:09:13.179Z,350
2017-05-10T12:10:13.151Z,355
2017-05-10T12:11:12.836Z,360
2017-05-10T12:12:13.116Z,375
2017-05-10T12:13:13.091Z,380
2017-05-10T12:14:12.881Z,375
2017-05-10T12:15:13.055Z,350
2017-05-10T12:16:13.030Z,340
2017-05-10T12:17:13.004Z,325
2017-05-10T12:18:13.035Z,315
2017-05-10T12:19:12.966Z,300
2017-05-10T12:20:12.948Z,300
2017-05-10T12:21:12.968Z,310
2017-05-10T12:22:12.901Z,335
2017-05-10T12:23:12.880Z,335
2017-05-10T12:24:12.863Z,335
2017-05-10T12:25:11.959Z,350
2017-05-10T12:26:12.813Z,355
2017-05-10T12:27:12.812Z,325
2017-05-10T12:28:12.541Z,320
2017-05-10T12:29:12.764Z,330
2017-05-10T12:30:12.950Z,335
2017-05-10T12:31:12.806Z,330
2017-05-10T12:32:12.695Z,335
2017-05-10T12:33:12.695Z,320
2017-05-10T12:34:12.662Z,310
2017-05-10T12:35:12.043Z,290
2017-05-10T12:36:12.629Z,290
2017-05-10T12:37:12.304Z,290
2017-05-10T12:38:12.612Z,290
2017-05-10T12:39:12.260Z,290
2017-05-10T12:40:12.293Z,280
2017-05-10T12:41:12.528Z,270
2017-05-10T12:42:12.511Z,265
2017-05-10T12:43:12.491Z,250
2017-05-10T12:44:12.469Z,235
2017-05-10T12:45:12.455Z,230
2017-05-10T12:46:12.413Z,260
2017-05-10T12:47:12.506Z,260
2017-05-10T12:48:12.367Z,235
2017-05-10T12:49:12.352Z,245
2017-05-10T12:50:12.331Z,245
2017-05-10T12:51:12.334Z,260
2017-05-10T12:52:12.289Z,255
2017-05-10T12:53:12.274Z,235
2017-05-10T12:54:11.657Z,215
2017-05-10T12:55:12.254Z,215
2017-05-10T12:56:12.214Z,210
2017-05-10T12:57:12.298Z,210
2017-05-10T12:58:12.169Z,200
2017-05-10T12:59:11.858Z,200
2017-05-10T13:00:11.901Z,205
2017-05-10T13:01:12.111Z,205
2017-05-10T13:02:12.085Z,210
2017-05-10T13:03:12.074Z,220
2017-05-10T13:04:11.800Z,235
2017-05-10T13:05:11.741Z,255
2017-05-10T13:06:12.077Z,250
2017-05-10T13:07:11.985Z,240
2017-05-10T13:08:11.966Z,225
2017-05-10T13:09:11.647Z,215
2017-05-10T13:10:11.928Z,205
2017-05-10T13:11:11.964Z,195
2017-05-10T13:12:11.586Z,195
2017-05-10T13:13:11.869Z,185
2017-05-10T13:14:11.839Z,195
2017-05-10T13:15:11.822Z,205
2017-05-10T13:16:11.856Z,210
2017-05-10T13:17:11.778Z,195
2017-05-10T13:18:11.781Z,220
2017-05-10T13:19:11.447Z,220
2017-05-10T13:20:11.733Z,205
2017-05-10T13:21:11.717Z,215
2017-05-10T13:22:11.736Z,190
2017-05-10T13:23:11.676Z,190
2017-05-10T13:24:11.395Z,190
2017-05-10T13:25:11.044Z,185
2017-05-10T13:26:11.597Z,200
2017-05-10T13:27:11.570Z,200
2017-05-10T13:28:11.596Z,200
2017-05-10T13:29:11.525Z,185
2017-05-10T13:30:11.252Z,180
2017-05-10T13:31:10.903Z,190
2017-05-10T13:32:11.499Z,205
2017-05-10T13:33:11.155Z,215
2017-05-10T13:34:11.123Z,225
2017-05-10T13:35:11.414Z,230
2017-05-10T13:36:11.089Z,230
2017-05-10T13:37:11.376Z,230
2017-05-10T13:38:11.356Z,240
2017-05-10T13:39:11.081Z,230
2017-05-10T13:40:25.910Z,230
2017-05-10T13:41:11.271Z,225
2017-05-10T13:42:11.030Z,220
2017-05-10T13:43:11.257Z,215
2017-05-10T13:44:11.249Z,215
2017-05-10T13:45:11.203Z,210
2017-05-10T13:46:11.187Z,205
2017-05-10T13:47:10.864Z,200
2017-05-10T13:48:11.147Z,200
2017-05-10T13:49:11.119Z,200
2017-05-10T13:50:10.799Z,200
2017-05-10T13:51:11.093Z,200
2017-05-10T13:52:11.071Z,205
2017-05-10T13:53:10.731Z,205
2017-05-10T13:54:10.415Z,205
2017-05-10T13:55:25.604Z,210
2017-05-10T13:57:41.145Z,200
2017-05-10T13:58:10.938Z,200
2017-05-10T13:59:10.909Z,200
2017-05-10T14:00:10.587Z,200
2017-05-10T14:01:10.868Z,200
2017-05-10T14:02:10.843Z,195
2017-05-10T14:03:10.542Z,190
2017-05-10T14:04:10.806Z,190